»·PEaware :: WAT169 KSNA-KLAS

WAT169 :: KSNA-KLAS

FLIGHT INFORMATION

Flight Status: Arrived
Operator: Unknown
More flights by this operator :: More flights under this callsign
Pilot: Marty P. (27464)
Aircraft: BOMBARDIER BD-100 CHALLENGER 300
(CL30)
More flights by this aircraft type
Origin: KSNA John Wayne-Orange Co
United States
Destination: KLAS McCarran Intl
United States
More flights between these airports :: More routes between these airports
Route: FINZZ2 MISEN KEPEC6
File this flight plan on PilotEdge
Remarks:
Altitude:
(Current/Filed)
27,000ft
Speed:
(Current/Filed)
470kts
Departed: 22-Mar-20 08:49 AM
Arrived: 22-Mar-20 09:42 AM
Distance/Time
Traveled:
196nm/0:53
Distance/Time
To Go:
Arrived

Flight Plot

Page will automatically refresh every two minutes.

Flight plan parsing failed; only flown route is shown


Map Options




Map Legend


Flown Route
Filed Route
Departure Airport
Arrival Airport
Navaid (VOR, NDB)
Fix

Horizontal Profiles

Position Reports

Time Latitude Longitude Heading Altitude Ground
Speed
22-Mar-20 08:29 33.674978 -117.865011 118 63ft 0kts
22-Mar-20 08:29 33.674978 -117.865011 118 63ft 0kts
22-Mar-20 08:31 33.674978 -117.865011 118 63ft 0kts
22-Mar-20 08:32 33.674978 -117.865011 118 63ft 0kts
22-Mar-20 08:32 33.674978 -117.865011 118 63ft 0kts
22-Mar-20 08:33 33.674978 -117.865011 118 63ft 0kts
22-Mar-20 08:35 33.674978 -117.865011 118 63ft 0kts
22-Mar-20 08:35 33.674978 -117.865011 118 63ft 0kts
22-Mar-20 08:36 33.674978 -117.865011 118 63ft 0kts
22-Mar-20 08:38 33.674978 -117.865011 118 63ft 0kts
22-Mar-20 08:38 33.674978 -117.865011 118 63ft 0kts
22-Mar-20 08:39 33.675056 -117.865187 118 63ft 2kts
22-Mar-20 08:40 33.675185 -117.865780 45 63ft 2kts
22-Mar-20 08:41 33.675119 -117.865835 27 62ft 0kts
22-Mar-20 08:42 33.675295 -117.865725 27 62ft 9kts
22-Mar-20 08:43 33.677548 -117.864291 28 63ft 7kts
22-Mar-20 08:44 33.678909 -117.863427 28 62ft 0kts
22-Mar-20 08:45 33.680665 -117.863104 298 62ft 0kts
22-Mar-20 08:46 33.680665 -117.863104 298 62ft 0kts
22-Mar-20 08:47 33.680995 -117.863837 297 62ft 12kts
22-Mar-20 08:48 33.667849 -117.873747 207 151ft 181kts
22-Mar-20 08:49 33.616145 -117.891070 187 2363ft 203kts
22-Mar-20 08:50 33.560140 -117.913337 220 4805ft 255kts
22-Mar-20 08:51 33.508035 -117.971155 221 7189ft 252kts
22-Mar-20 08:52 33.516502 -118.046415 309 9845ft 283kts
22-Mar-20 08:53 33.572526 -118.115366 327 13677ft 325kts
22-Mar-20 08:54 33.666665 -118.085192 23 16582ft 394kts
22-Mar-20 08:55 33.764944 -118.027381 21 19459ft 420kts
22-Mar-20 08:56 33.867548 -117.967427 19 21917ft 443kts
22-Mar-20 08:57 33.973604 -117.883193 31 24098ft 476kts
22-Mar-20 08:58 34.079114 -117.784996 37 26108ft 499kts
22-Mar-20 08:59 34.169771 -117.658255 47 27202ft 537kts
22-Mar-20 09:00 34.266746 -117.514002 47 27202ft 564kts
22-Mar-20 09:01 34.365416 -117.366599 47 27205ft 565kts
22-Mar-20 09:02 34.462488 -117.220976 48 27189ft 563kts
22-Mar-20 09:03 34.561529 -117.072981 47 27190ft 562kts
22-Mar-20 09:04 34.661757 -116.926814 46 27210ft 563kts
22-Mar-20 09:05 34.761969 -116.780176 46 27229ft 562kts
22-Mar-20 09:06 34.865098 -116.637392 36 26369ft 560kts
22-Mar-20 09:07 34.977298 -116.525642 33 24374ft 483kts
22-Mar-20 09:08 35.073359 -116.432010 32 24216ft 413kts
22-Mar-20 09:09 35.158224 -116.333666 42 23589ft 449kts
22-Mar-20 09:10 35.247005 -116.222634 43 21661ft 458kts
22-Mar-20 09:11 35.335571 -116.111237 43 19749ft 454kts
22-Mar-20 09:12 35.422821 -116.001081 44 17829ft 440kts
22-Mar-20 09:13 35.506263 -115.895392 44 15922ft 420kts
22-Mar-20 09:14 35.585746 -115.794414 45 13998ft 398kts
22-Mar-20 09:15 35.659971 -115.699825 45 12995ft 358kts
22-Mar-20 09:16 35.726135 -115.615280 45 12997ft 327kts
22-Mar-20 09:17 35.807630 -115.575776 5 13001ft 311kts
22-Mar-20 09:18 35.893012 -115.568093 0 12995ft 302kts
22-Mar-20 09:19 35.972871 -115.546572 50 12371ft 312kts
22-Mar-20 09:20 36.008048 -115.447628 68 10979ft 300kts
22-Mar-20 09:21 36.028847 -115.356040 93 10542ft 280kts
22-Mar-20 09:22 36.022857 -115.262555 95 8994ft 276kts
22-Mar-20 09:23 36.016586 -115.173442 95 8979ft 250kts
22-Mar-20 09:24 36.010832 -115.088940 94 7995ft 233kts
22-Mar-20 09:25 36.005988 -115.008296 94 8000ft 240kts
22-Mar-20 09:26 36.001026 -114.925424 94 8000ft 242kts
22-Mar-20 09:27 35.996166 -114.845134 94 8000ft 232kts
22-Mar-20 09:28 35.990987 -114.765180 94 8000ft 232kts
22-Mar-20 09:29 35.985651 -114.684568 94 8000ft 233kts
22-Mar-20 09:30 35.996952 -114.611618 20 8013ft 231kts
22-Mar-20 09:31 36.057798 -114.613504 306 8007ft 226kts
22-Mar-20 09:32 36.069417 -114.687191 276 7993ft 208kts
22-Mar-20 09:33 36.073149 -114.754315 270 7989ft 181kts
22-Mar-20 09:34 36.073255 -114.817644 269 7191ft 186kts
22-Mar-20 09:35 36.073366 -114.879780 270 6179ft 174kts
22-Mar-20 09:36 36.073484 -114.937750 269 5227ft 162kts
22-Mar-20 09:37 36.073576 -114.991443 269 4354ft 150kts
22-Mar-20 09:38 36.073639 -115.043889 269 3533ft 157kts
22-Mar-20 09:39 36.073647 -115.098933 270 2651ft 149kts
22-Mar-20 09:40 36.073674 -115.143177 269 2188ft 71kts
22-Mar-20 09:41 36.074527 -115.150115 300 2188ft 0kts
22-Mar-20 09:42 36.075075 -115.151045 316 2188ft 14kts
22-Mar-20 09:43 36.078041 -115.154037 268 2188ft 6kts
22-Mar-20 09:44 36.078035 -115.156373 270 2187ft 9kts
22-Mar-20 09:45 36.078032 -115.160827 269 2188ft 15kts
22-Mar-20 09:46 36.078024 -115.166455 270 2188ft 17kts
22-Mar-20 09:47 36.078769 -115.170795 24 2187ft 12kts
22-Mar-20 09:48 36.081733 -115.170152 323 2188ft 0kts
22-Mar-20 09:49 36.081733 -115.170152 323 2188ft 0kts

Navigation Log

Ident Type
Flight plan parsing failed, navigation log unavailable